sensor_id;sensor_type;location;lat;lon;timestamp;pressure;altitude;pressure_sealevel;temperature;humidity
24762;BME280;12865;51.934;10.330;2023-01-10T00:02:35;98407.31;;;5.98;100.00
24762;BME280;12865;51.934;10.330;2023-01-10T00:05:21;98415.53;;;5.95;100.00
24762;BME280;12865;51.934;10.330;2023-01-10T00:08:08;98418.28;;;5.94;100.00
24762;BME280;12865;51.934;10.330;2023-01-10T00:10:53;98416.59;;;5.93;100.00
24762;BME280;12865;51.934;10.330;2023-01-10T00:13:39;98419.13;;;5.94;100.00
24762;BME280;12865;51.934;10.330;2023-01-10T00:16:25;98423.47;;;5.95;100.00
24762;BME280;12865;51.934;10.330;2023-01-10T00:19:10;98438.63;;;5.93;100.00
24762;BME280;12865;51.934;10.330;2023-01-10T00:24:21;98443.47;;;5.88;100.00
24762;BME280;12865;51.934;10.330;2023-01-10T00:27:08;98439.81;;;5.89;100.00
24762;BME280;12865;51.934;10.330;2023-01-10T00:29:54;98442.94;;;5.94;100.00
24762;BME280;12865;51.934;10.330;2023-01-10T00:32:43;98452.81;;;5.92;100.00
24762;BME280;12865;51.934;10.330;2023-01-10T00:35:29;98454.47;;;5.93;100.00
24762;BME280;12865;51.934;10.330;2023-01-10T00:38:15;98463.63;;;5.89;100.00
24762;BME280;12865;51.934;10.330;2023-01-10T00:41:02;98454.97;;;5.87;100.00
24762;BME280;12865;51.934;10.330;2023-01-10T00:44:08;98468.66;;;5.92;100.00
24762;BME280;12865;51.934;10.330;2023-01-10T00:46:54;98476.13;;;5.87;100.00
24762;BME280;12865;51.934;10.330;2023-01-10T00:49:40;98474.69;;;5.94;100.00
24762;BME280;12865;51.934;10.330;2023-01-10T00:52:25;98488.75;;;5.95;100.00
24762;BME280;12865;51.934;10.330;2023-01-10T00:55:11;98494.66;;;5.87;100.00
24762;BME280;12865;51.934;10.330;2023-01-10T00:57:57;98490.72;;;5.81;100.00
24762;BME280;12865;51.934;10.330;2023-01-10T01:00:43;98498.16;;;5.76;100.00
24762;BME280;12865;51.934;10.330;2023-01-10T01:03:33;98497.81;;;5.81;100.00
24762;BME280;12865;51.934;10.330;2023-01-10T01:06:19;98502.03;;;5.72;100.00
24762;BME280;12865;51.934;10.330;2023-01-10T01:09:05;98513.28;;;5.85;100.00
24762;BME280;12865;51.934;10.330;2023-01-10T01:11:50;98517.00;;;5.83;100.00
24762;BME280;12865;51.934;10.330;2023-01-10T01:14:36;98516.44;;;5.79;100.00
24762;BME280;12865;51.934;10.330;2023-01-10T01:17:22;98527.34;;;5.86;100.00
24762;BME280;12865;51.934;10.330;2023-01-10T01:20:08;98529.28;;;5.84;100.00
24762;BME280;12865;51.934;10.330;2023-01-10T01:22:54;98540.97;;;5.81;100.00
24762;BME280;12865;51.934;10.330;2023-01-10T01:25:40;98539.13;;;5.82;100.00
24762;BME280;12865;51.934;10.330;2023-01-10T01:28:26;98543.97;;;5.77;100.00
24762;BME280;12865;51.934;10.330;2023-01-10T01:31:12;98547.47;;;5.77;100.00
24762;BME280;12865;51.934;10.330;2023-01-10T01:33:57;98557.19;;;5.77;100.00
24762;BME280;12865;51.934;10.330;2023-01-10T01:36:43;98558.03;;;5.77;100.00
24762;BME280;12865;51.934;10.330;2023-01-10T01:39:29;98571.13;;;5.79;100.00
24762;BME280;12865;51.934;10.330;2023-01-10T01:42:32;98578.34;;;5.77;100.00
24762;BME280;12865;51.934;10.330;2023-01-10T01:45:32;98573.78;;;5.79;100.00
24762;BME280;12865;51.934;10.330;2023-01-10T01:48:22;98585.31;;;5.78;100.00
24762;BME280;12865;51.934;10.330;2023-01-10T01:51:12;98583.75;;;5.75;100.00
24762;BME280;12865;51.934;10.330;2023-01-10T01:54:03;98593.13;;;5.90;100.00
24762;BME280;12865;51.934;10.330;2023-01-10T01:57:02;98606.38;;;5.79;100.00
24762;BME280;12865;51.934;10.330;2023-01-10T01:59:50;98614.78;;;5.73;100.00
24762;BME280;12865;51.934;10.330;2023-01-10T02:02:43;98614.06;;;5.71;100.00
24762;BME280;12865;51.934;10.330;2023-01-10T02:05:33;98617.28;;;5.75;100.00
24762;BME280;12865;51.934;10.330;2023-01-10T02:08:20;98632.59;;;5.71;100.00
24762;BME280;12865;51.934;10.330;2023-01-10T02:11:09;98620.31;;;5.70;100.00
24762;BME280;12865;51.934;10.330;2023-01-10T02:13:56;98626.69;;;5.68;100.00
24762;BME280;12865;51.934;10.330;2023-01-10T02:16:42;98632.69;;;5.70;100.00
24762;BME280;12865;51.934;10.330;2023-01-10T02:28:53;98652.66;;;5.74;100.00
24762;BME280;12865;51.934;10.330;2023-01-10T02:35:02;98660.94;;;5.69;100.00
24762;BME280;12865;51.934;10.330;2023-01-10T02:43:41;98669.97;;;5.67;100.00
24762;BME280;12865;51.934;10.330;2023-01-10T02:46:30;98673.59;;;5.66;100.00
24762;BME280;12865;51.934;10.330;2023-01-10T02:49:17;98678.75;;;5.67;100.00
24762;BME280;12865;51.934;10.330;2023-01-10T02:52:03;98684.75;;;5.69;100.00
24762;BME280;12865;51.934;10.330;2023-01-10T02:54:51;98685.59;;;5.70;100.00
24762;BME280;12865;51.934;10.330;2023-01-10T02:57:55;98690.78;;;5.60;100.00
24762;BME280;12865;51.934;10.330;2023-01-10T03:10:05;98717.22;;;5.71;100.00
24762;BME280;12865;51.934;10.330;2023-01-10T03:12:57;98724.53;;;5.68;100.00
24762;BME280;12865;51.934;10.330;2023-01-10T03:15:46;98727.66;;;5.62;100.00
24762;BME280;12865;51.934;10.330;2023-01-10T03:19:00;98728.16;;;5.67;100.00
24762;BME280;12865;51.934;10.330;2023-01-10T03:21:50;98738.75;;;5.67;100.00
24762;BME280;12865;51.934;10.330;2023-01-10T03:24:41;98753.16;;;5.63;100.00
24762;BME280;12865;51.934;10.330;2023-01-10T03:27:42;98750.97;;;5.68;100.00
24762;BME280;12865;51.934;10.330;2023-01-10T03:33:33;98755.91;;;5.61;100.00
24762;BME280;12865;51.934;10.330;2023-01-10T03:36:30;98762.19;;;5.60;100.00
24762;BME280;12865;51.934;10.330;2023-01-10T03:42:39;98779.47;;;5.64;100.00
24762;BME280;12865;51.934;10.330;2023-01-10T03:45:53;98788.72;;;5.70;100.00
24762;BME280;12865;51.934;10.330;2023-01-10T03:48:44;98794.16;;;5.79;100.00
24762;BME280;12865;51.934;10.330;2023-01-10T03:51:32;98801.59;;;5.63;100.00
24762;BME280;12865;51.934;10.330;2023-01-10T03:54:18;98808.94;;;5.60;100.00
24762;BME280;12865;51.934;10.330;2023-01-10T03:57:05;98812.75;;;5.56;100.00
24762;BME280;12865;51.934;10.330;2023-01-10T03:59:54;98814.81;;;5.63;100.00
24762;BME280;12865;51.934;10.330;2023-01-10T04:02:42;98823.34;;;5.67;100.00
24762;BME280;12865;51.934;10.330;2023-01-10T04:05:28;98822.50;;;5.66;100.00
24762;BME280;12865;51.934;10.330;2023-01-10T04:08:14;98838.13;;;5.69;100.00
24762;BME280;12865;51.934;10.330;2023-01-10T04:11:00;98844.00;;;5.62;100.00
24762;BME280;12865;51.934;10.330;2023-01-10T04:13:45;98841.72;;;5.57;100.00
24762;BME280;12865;51.934;10.330;2023-01-10T04:16:33;98850.75;;;5.66;100.00
24762;BME280;12865;51.934;10.330;2023-01-10T04:19:18;98857.00;;;5.65;100.00
24762;BME280;12865;51.934;10.330;2023-01-10T04:22:04;98856.00;;;5.54;100.00
24762;BME280;12865;51.934;10.330;2023-01-10T04:24:52;98875.50;;;5.53;100.00
24762;BME280;12865;51.934;10.330;2023-01-10T04:27:38;98873.22;;;5.60;100.00
24762;BME280;12865;51.934;10.330;2023-01-10T04:30:24;98875.50;;;5.53;100.00
24762;BME280;12865;51.934;10.330;2023-01-10T04:33:10;98876.31;;;5.54;100.00
24762;BME280;12865;51.934;10.330;2023-01-10T04:35:57;98884.03;;;5.57;100.00
24762;BME280;12865;51.934;10.330;2023-01-10T04:38:42;98886.88;;;5.54;100.00
24762;BME280;12865;51.934;10.330;2023-01-10T04:41:28;98889.41;;;5.56;100.00
24762;BME280;12865;51.934;10.330;2023-01-10T04:44:13;98906.13;;;5.56;100.00
24762;BME280;12865;51.934;10.330;2023-01-10T04:46:59;98904.31;;;5.45;100.00
24762;BME280;12865;51.934;10.330;2023-01-10T04:49:45;98906.72;;;5.48;100.00
24762;BME280;12865;51.934;10.330;2023-01-10T04:52:30;98921.34;;;5.41;100.00
24762;BME280;12865;51.934;10.330;2023-01-10T04:55:16;98922.66;;;5.36;100.00
24762;BME280;12865;51.934;10.330;2023-01-10T04:58:02;98924.56;;;5.34;100.00
24762;BME280;12865;51.934;10.330;2023-01-10T05:00:47;98917.72;;;5.31;100.00
24762;BME280;12865;51.934;10.330;2023-01-10T05:03:33;98930.38;;;5.39;100.00
24762;BME280;12865;51.934;10.330;2023-01-10T05:06:20;98943.22;;;5.43;100.00
24762;BME280;12865;51.934;10.330;2023-01-10T05:09:07;98947.56;;;5.44;100.00
24762;BME280;12865;51.934;10.330;2023-01-10T05:11:53;98947.06;;;5.39;100.00
24762;BME280;12865;51.934;10.330;2023-01-10T05:14:38;98948.72;;;5.40;100.00
24762;BME280;12865;51.934;10.330;2023-01-10T05:17:24;98948.41;;;5.45;100.00
24762;BME280;12865;51.934;10.330;2023-01-10T05:20:10;98947.00;;;5.52;100.00
24762;BME280;12865;51.934;10.330;2023-01-10T05:22:57;98951.44;;;5.51;100.00
24762;BME280;12865;51.934;10.330;2023-01-10T05:25:43;98955.03;;;5.50;100.00
24762;BME280;12865;51.934;10.330;2023-01-10T05:28:29;98962.47;;;5.45;100.00
24762;BME280;12865;51.934;10.330;2023-01-10T05:31:17;98962.00;;;5.51;100.00
24762;BME280;12865;51.934;10.330;2023-01-10T05:34:04;98967.31;;;5.51;100.00
24762;BME280;12865;51.934;10.330;2023-01-10T05:36:49;98976.41;;;5.47;100.00
24762;BME280;12865;51.934;10.330;2023-01-10T05:39:35;98980.53;;;5.51;100.00
24762;BME280;12865;51.934;10.330;2023-01-10T05:42:21;98980.03;;;5.46;100.00
24762;BME280;12865;51.934;10.330;2023-01-10T05:45:07;98981.19;;;5.42;100.00
24762;BME280;12865;51.934;10.330;2023-01-10T05:47:53;98987.66;;;5.38;100.00
24762;BME280;12865;51.934;10.330;2023-01-10T05:50:38;98995.81;;;5.35;100.00
24762;BME280;12865;51.934;10.330;2023-01-10T05:53:24;98993.63;;;5.53;100.00
24762;BME280;12865;51.934;10.330;2023-01-10T05:56:10;99004.25;;;5.40;100.00
24762;BME280;12865;51.934;10.330;2023-01-10T05:58:55;98997.91;;;5.43;100.00
24762;BME280;12865;51.934;10.330;2023-01-10T06:01:41;99019.69;;;5.46;100.00
24762;BME280;12865;51.934;10.330;2023-01-10T06:04:27;99022.19;;;5.48;100.00
24762;BME280;12865;51.934;10.330;2023-01-10T06:07:12;99025.91;;;5.45;100.00
24762;BME280;12865;51.934;10.330;2023-01-10T06:09:58;99033.47;;;5.39;100.00
24762;BME280;12865;51.934;10.330;2023-01-10T06:12:44;99036.31;;;5.36;100.00
24762;BME280;12865;51.934;10.330;2023-01-10T06:15:31;99037.41;;;5.21;100.00
24762;BME280;12865;51.934;10.330;2023-01-10T06:18:17;99041.41;;;5.26;100.00
24762;BME280;12865;51.934;10.330;2023-01-10T06:21:02;99057.59;;;5.22;100.00
24762;BME280;12865;51.934;10.330;2023-01-10T06:26:16;99066.16;;;5.25;100.00
24762;BME280;12865;51.934;10.330;2023-01-10T06:29:03;99072.72;;;5.32;100.00
24762;BME280;12865;51.934;10.330;2023-01-10T06:31:48;99078.53;;;5.25;100.00
24762;BME280;12865;51.934;10.330;2023-01-10T06:34:34;99078.41;;;5.26;100.00
24762;BME280;12865;51.934;10.330;2023-01-10T06:37:20;99072.72;;;5.20;100.00
24762;BME280;12865;51.934;10.330;2023-01-10T06:40:06;99084.97;;;5.21;100.00
24762;BME280;12865;51.934;10.330;2023-01-10T06:42:51;99084.28;;;5.19;100.00
24762;BME280;12865;51.934;10.330;2023-01-10T06:45:37;99081.94;;;5.14;100.00
24762;BME280;12865;51.934;10.330;2023-01-10T06:48:23;99092.59;;;5.12;100.00
24762;BME280;12865;51.934;10.330;2023-01-10T06:51:08;99100.72;;;5.22;100.00
24762;BME280;12865;51.934;10.330;2023-01-10T06:53:54;99111.50;;;5.19;100.00
24762;BME280;12865;51.934;10.330;2023-01-10T06:56:40;99119.22;;;5.22;100.00
24762;BME280;12865;51.934;10.330;2023-01-10T06:59:25;99127.25;;;5.21;100.00
24762;BME280;12865;51.934;10.330;2023-01-10T07:02:11;99124.97;;;5.16;100.00
24762;BME280;12865;51.934;10.330;2023-01-10T07:04:57;99129.81;;;5.22;100.00
24762;BME280;12865;51.934;10.330;2023-01-10T07:07:42;99131.06;;;5.29;100.00
24762;BME280;12865;51.934;10.330;2023-01-10T07:10:28;99135.84;;;5.24;100.00
24762;BME280;12865;51.934;10.330;2023-01-10T07:13:14;99133.16;;;5.37;100.00
24762;BME280;12865;51.934;10.330;2023-01-10T07:16:07;99154.91;;;5.40;100.00
24762;BME280;12865;51.934;10.330;2023-01-10T07:18:53;99153.47;;;5.36;100.00
24762;BME280;12865;51.934;10.330;2023-01-10T07:21:39;99158.53;;;5.39;100.00
24762;BME280;12865;51.934;10.330;2023-01-10T07:24:24;99155.75;;;5.41;100.00
24762;BME280;12865;51.934;10.330;2023-01-10T07:27:11;99160.00;;;5.43;100.00
24762;BME280;12865;51.934;10.330;2023-01-10T07:29:57;99154.16;;;5.51;100.00
24762;BME280;12865;51.934;10.330;2023-01-10T07:32:43;99177.75;;;5.41;100.00
24762;BME280;12865;51.934;10.330;2023-01-10T07:35:28;99180.31;;;5.43;100.00
24762;BME280;12865;51.934;10.330;2023-01-10T07:38:14;99178.84;;;5.39;100.00
24762;BME280;12865;51.934;10.330;2023-01-10T07:41:01;99176.81;;;5.42;100.00
24762;BME280;12865;51.934;10.330;2023-01-10T07:43:47;99186.66;;;5.53;100.00
24762;BME280;12865;51.934;10.330;2023-01-10T07:46:33;99182.38;;;5.63;100.00
24762;BME280;12865;51.934;10.330;2023-01-10T07:49:19;99186.50;;;5.54;100.00
24762;BME280;12865;51.934;10.330;2023-01-10T07:52:04;99192.66;;;5.55;100.00
24762;BME280;12865;51.934;10.330;2023-01-10T07:54:53;99202.09;;;5.46;100.00
24762;BME280;12865;51.934;10.330;2023-01-10T07:57:38;99196.97;;;5.56;100.00
24762;BME280;12865;51.934;10.330;2023-01-10T08:00:24;99209.47;;;5.54;100.00
24762;BME280;12865;51.934;10.330;2023-01-10T08:03:11;99210.09;;;5.58;100.00
24762;BME280;12865;51.934;10.330;2023-01-10T08:08:44;99198.66;;;5.70;100.00
24762;BME280;12865;51.934;10.330;2023-01-10T08:11:30;99196.09;;;5.68;100.00
24762;BME280;12865;51.934;10.330;2023-01-10T08:14:15;99196.78;;;5.59;100.00
24762;BME280;12865;51.934;10.330;2023-01-10T08:17:01;99198.69;;;5.57;100.00
24762;BME280;12865;51.934;10.330;2023-01-10T08:19:47;99202.91;;;5.60;100.00
24762;BME280;12865;51.934;10.330;2023-01-10T08:22:33;99208.31;;;5.58;100.00
24762;BME280;12865;51.934;10.330;2023-01-10T08:25:19;99205.31;;;5.63;100.00
24762;BME280;12865;51.934;10.330;2023-01-10T08:28:05;99215.56;;;5.80;100.00
24762;BME280;12865;51.934;10.330;2023-01-10T08:30:51;99216.16;;;5.83;100.00
24762;BME280;12865;51.934;10.330;2023-01-10T08:33:39;99226.13;;;5.80;100.00
24762;BME280;12865;51.934;10.330;2023-01-10T08:36:25;99227.09;;;5.79;100.00
24762;BME280;12865;51.934;10.330;2023-01-10T08:39:13;99227.00;;;5.80;100.00
24762;BME280;12865;51.934;10.330;2023-01-10T08:41:58;99230.38;;;5.70;100.00
24762;BME280;12865;51.934;10.330;2023-01-10T08:44:44;99235.03;;;5.79;100.00
24762;BME280;12865;51.934;10.330;2023-01-10T08:47:30;99242.84;;;5.80;100.00
24762;BME280;12865;51.934;10.330;2023-01-10T08:50:15;99246.25;;;5.70;100.00
24762;BME280;12865;51.934;10.330;2023-01-10T08:53:01;99258.31;;;5.74;100.00
24762;BME280;12865;51.934;10.330;2023-01-10T08:55:50;99257.13;;;5.78;100.00
24762;BME280;12865;51.934;10.330;2023-01-10T08:58:36;99256.81;;;5.82;100.00
24762;BME280;12865;51.934;10.330;2023-01-10T09:01:21;99265.59;;;5.83;100.00
24762;BME280;12865;51.934;10.330;2023-01-10T09:04:07;99276.16;;;5.83;100.00
24762;BME280;12865;51.934;10.330;2023-01-10T09:06:53;99284.94;;;5.83;100.00
24762;BME280;12865;51.934;10.330;2023-01-10T09:09:39;99290.13;;;5.85;100.00
24762;BME280;12865;51.934;10.330;2023-01-10T09:12:25;99278.41;;;5.89;100.00
24762;BME280;12865;51.934;10.330;2023-01-10T09:15:31;99262.22;;;5.94;100.00
24762;BME280;12865;51.934;10.330;2023-01-10T09:18:18;99254.91;;;5.97;100.00
24762;BME280;12865;51.934;10.330;2023-01-10T09:21:04;99253.94;;;5.98;100.00
24762;BME280;12865;51.934;10.330;2023-01-10T09:23:49;99265.03;;;6.16;100.00
24762;BME280;12865;51.934;10.330;2023-01-10T09:26:35;99256.56;;;6.11;100.00
24762;BME280;12865;51.934;10.330;2023-01-10T09:29:20;99260.78;;;6.13;100.00
24762;BME280;12865;51.934;10.330;2023-01-10T09:32:06;99262.78;;;6.22;100.00
24762;BME280;12865;51.934;10.330;2023-01-10T09:34:53;99259.44;;;6.31;100.00
24762;BME280;12865;51.934;10.330;2023-01-10T09:37:39;99268.63;;;6.39;100.00
24762;BME280;12865;51.934;10.330;2023-01-10T09:49:28;99278.84;;;6.56;100.00
24762;BME280;12865;51.934;10.330;2023-01-10T09:52:23;99286.09;;;6.41;100.00
24762;BME280;12865;51.934;10.330;2023-01-10T09:55:24;99291.50;;;6.40;100.00
24762;BME280;12865;51.934;10.330;2023-01-10T09:58:12;99294.69;;;6.45;100.00
24762;BME280;12865;51.934;10.330;2023-01-10T10:01:03;99300.69;;;6.47;100.00
24762;BME280;12865;51.934;10.330;2023-01-10T10:06:50;99311.53;;;6.44;100.00
24762;BME280;12865;51.934;10.330;2023-01-10T10:09:36;99312.84;;;6.25;100.00
24762;BME280;12865;51.934;10.330;2023-01-10T10:18:45;99320.47;;;6.30;100.00
24762;BME280;12865;51.934;10.330;2023-01-10T10:28:23;99321.97;;;6.21;100.00
24762;BME280;12865;51.934;10.330;2023-01-10T10:31:50;99322.91;;;6.20;100.00
24762;BME280;12865;51.934;10.330;2023-01-10T10:34:45;99323.25;;;6.16;100.00
24762;BME280;12865;51.934;10.330;2023-01-10T10:37:39;99318.88;;;6.27;100.00
24762;BME280;12865;51.934;10.330;2023-01-10T10:40:31;99316.66;;;6.21;100.00
24762;BME280;12865;51.934;10.330;2023-01-10T10:43:19;99321.72;;;6.24;100.00
24762;BME280;12865;51.934;10.330;2023-01-10T10:46:08;99318.81;;;6.16;100.00
24762;BME280;12865;51.934;10.330;2023-01-10T10:49:00;99326.31;;;6.22;100.00
24762;BME280;12865;51.934;10.330;2023-01-10T10:51:51;99322.56;;;6.25;100.00
24762;BME280;12865;51.934;10.330;2023-01-10T10:54:37;99312.22;;;6.22;100.00
24762;BME280;12865;51.934;10.330;2023-01-10T10:57:25;99321.41;;;6.29;100.00
24762;BME280;12865;51.934;10.330;2023-01-10T11:00:13;99322.72;;;6.23;100.00
24762;BME280;12865;51.934;10.330;2023-01-10T11:03:24;99313.63;;;6.39;100.00
24762;BME280;12865;51.934;10.330;2023-01-10T11:06:11;99322.88;;;6.33;100.00
24762;BME280;12865;51.934;10.330;2023-01-10T11:09:01;99338.88;;;6.31;100.00
24762;BME280;12865;51.934;10.330;2023-01-10T11:11:48;99333.56;;;6.31;100.00
24762;BME280;12865;51.934;10.330;2023-01-10T11:14:46;99335.06;;;6.36;100.00
24762;BME280;12865;51.934;10.330;2023-01-10T11:17:33;99336.41;;;6.41;100.00
24762;BME280;12865;51.934;10.330;2023-01-10T11:20:25;99336.31;;;6.43;100.00
24762;BME280;12865;51.934;10.330;2023-01-10T11:23:10;99338.56;;;6.36;100.00
24762;BME280;12865;51.934;10.330;2023-01-10T11:25:56;99341.81;;;6.40;100.00
24762;BME280;12865;51.934;10.330;2023-01-10T11:28:42;99345.59;;;6.48;100.00
24762;BME280;12865;51.934;10.330;2023-01-10T11:31:30;99345.19;;;6.42;100.00
24762;BME280;12865;51.934;10.330;2023-01-10T11:34:31;99337.41;;;6.27;100.00
24762;BME280;12865;51.934;10.330;2023-01-10T11:37:26;99344.91;;;6.34;100.00
24762;BME280;12865;51.934;10.330;2023-01-10T11:40:28;99340.91;;;6.28;100.00
24762;BME280;12865;51.934;10.330;2023-01-10T11:49:11;99337.81;;;6.34;100.00
24762;BME280;12865;51.934;10.330;2023-01-10T11:52:12;99336.50;;;6.40;100.00
24762;BME280;12865;51.934;10.330;2023-01-10T11:55:01;99348.88;;;6.52;100.00
24762;BME280;12865;51.934;10.330;2023-01-10T11:58:08;99326.63;;;6.54;100.00
24762;BME280;12865;51.934;10.330;2023-01-10T12:00:54;99327.16;;;6.47;100.00
24762;BME280;12865;51.934;10.330;2023-01-10T12:03:40;99321.28;;;6.43;100.00
24762;BME280;12865;51.934;10.330;2023-01-10T12:06:26;99329.41;;;6.40;100.00
24762;BME280;12865;51.934;10.330;2023-01-10T12:09:41;99320.19;;;6.46;100.00
24762;BME280;12865;51.934;10.330;2023-01-10T12:12:30;99320.56;;;6.52;100.00
24762;BME280;12865;51.934;10.330;2023-01-10T12:15:28;99328.03;;;6.47;100.00
24762;BME280;12865;51.934;10.330;2023-01-10T12:18:14;99339.34;;;6.49;100.00
24762;BME280;12865;51.934;10.330;2023-01-10T12:21:02;99318.28;;;6.48;100.00
24762;BME280;12865;51.934;10.330;2023-01-10T12:23:49;99337.56;;;6.50;100.00
24762;BME280;12865;51.934;10.330;2023-01-10T12:26:36;99333.50;;;6.57;100.00
24762;BME280;12865;51.934;10.330;2023-01-10T12:29:26;99341.66;;;6.54;100.00
24762;BME280;12865;51.934;10.330;2023-01-10T12:32:45;99340.50;;;6.58;100.00
24762;BME280;12865;51.934;10.330;2023-01-10T12:35:39;99334.66;;;6.53;100.00
24762;BME280;12865;51.934;10.330;2023-01-10T12:38:31;99335.69;;;6.63;100.00
24762;BME280;12865;51.934;10.330;2023-01-10T12:47:56;99334.47;;;6.80;100.00
24762;BME280;12865;51.934;10.330;2023-01-10T12:50:46;99325.03;;;6.76;100.00
24762;BME280;12865;51.934;10.330;2023-01-10T12:53:45;99328.72;;;6.86;100.00
24762;BME280;12865;51.934;10.330;2023-01-10T12:56:32;99330.28;;;6.88;100.00
24762;BME280;12865;51.934;10.330;2023-01-10T12:59:36;99333.38;;;7.06;100.00
24762;BME280;12865;51.934;10.330;2023-01-10T13:02:25;99343.28;;;7.15;100.00
24762;BME280;12865;51.934;10.330;2023-01-10T13:05:23;99341.72;;;7.24;100.00
24762;BME280;12865;51.934;10.330;2023-01-10T13:08:12;99339.16;;;7.11;100.00
24762;BME280;12865;51.934;10.330;2023-01-10T13:10:59;99350.84;;;7.08;100.00
24762;BME280;12865;51.934;10.330;2023-01-10T13:13:52;99339.75;;;7.03;100.00
24762;BME280;12865;51.934;10.330;2023-01-10T13:16:53;99337.47;;;7.10;100.00
24762;BME280;12865;51.934;10.330;2023-01-10T13:19:40;99332.28;;;7.08;100.00
24762;BME280;12865;51.934;10.330;2023-01-10T13:22:26;99338.47;;;6.85;100.00
24762;BME280;12865;51.934;10.330;2023-01-10T13:25:24;99328.19;;;6.81;100.00
24762;BME280;12865;51.934;10.330;2023-01-10T13:28:18;99328.59;;;6.87;100.00
24762;BME280;12865;51.934;10.330;2023-01-10T13:31:20;99328.47;;;6.89;100.00
24762;BME280;12865;51.934;10.330;2023-01-10T13:34:11;99320.88;;;6.84;100.00
24762;BME280;12865;51.934;10.330;2023-01-10T13:37:02;99316.13;;;6.77;100.00
24762;BME280;12865;51.934;10.330;2023-01-10T13:39:54;99320.09;;;6.71;100.00
24762;BME280;12865;51.934;10.330;2023-01-10T13:42:40;99318.63;;;6.67;100.00
24762;BME280;12865;51.934;10.330;2023-01-10T13:45:44;99324.16;;;6.64;100.00
24762;BME280;12865;51.934;10.330;2023-01-10T13:48:30;99324.25;;;6.62;100.00
24762;BME280;12865;51.934;10.330;2023-01-10T13:51:20;99323.13;;;6.78;100.00
24762;BME280;12865;51.934;10.330;2023-01-10T14:00:43;99310.50;;;6.57;100.00
24762;BME280;12865;51.934;10.330;2023-01-10T14:03:54;99309.44;;;6.60;100.00
24762;BME280;12865;51.934;10.330;2023-01-10T14:06:42;99313.94;;;6.47;100.00
24762;BME280;12865;51.934;10.330;2023-01-10T14:09:36;99323.69;;;6.46;100.00
24762;BME280;12865;51.934;10.330;2023-01-10T14:15:37;99314.72;;;6.36;100.00
24762;BME280;12865;51.934;10.330;2023-01-10T14:18:34;99321.16;;;6.45;100.00
24762;BME280;12865;51.934;10.330;2023-01-10T14:21:24;99322.56;;;6.38;100.00
24762;BME280;12865;51.934;10.330;2023-01-10T14:24:40;99315.13;;;6.43;100.00
24762;BME280;12865;51.934;10.330;2023-01-10T14:27:45;99320.41;;;6.43;100.00
24762;BME280;12865;51.934;10.330;2023-01-10T14:30:33;99324.47;;;6.36;100.00
24762;BME280;12865;51.934;10.330;2023-01-10T14:33:20;99319.91;;;6.38;100.00
24762;BME280;12865;51.934;10.330;2023-01-10T14:36:23;99328.06;;;6.35;100.00
24762;BME280;12865;51.934;10.330;2023-01-10T14:39:12;99316.53;;;6.36;100.00
24762;BME280;12865;51.934;10.330;2023-01-10T14:42:02;99318.94;;;6.39;100.00
24762;BME280;12865;51.934;10.330;2023-01-10T14:44:58;99320.53;;;6.41;100.00
24762;BME280;12865;51.934;10.330;2023-01-10T14:47:44;99318.09;;;6.38;100.00
24762;BME280;12865;51.934;10.330;2023-01-10T14:50:31;99313.25;;;6.32;100.00
24762;BME280;12865;51.934;10.330;2023-01-10T14:53:29;99325.38;;;6.47;100.00
24762;BME280;12865;51.934;10.330;2023-01-10T14:56:24;99307.63;;;6.37;100.00
24762;BME280;12865;51.934;10.330;2023-01-10T15:02:21;99301.38;;;6.38;100.00
24762;BME280;12865;51.934;10.330;2023-01-10T15:05:15;99292.47;;;6.39;100.00
24762;BME280;12865;51.934;10.330;2023-01-10T15:08:23;99300.41;;;6.39;100.00
24762;BME280;12865;51.934;10.330;2023-01-10T15:11:11;99291.22;;;6.31;100.00
24762;BME280;12865;51.934;10.330;2023-01-10T15:14:02;99279.59;;;6.21;100.00
24762;BME280;12865;51.934;10.330;2023-01-10T15:16:51;99288.06;;;6.26;100.00
24762;BME280;12865;51.934;10.330;2023-01-10T15:19:39;99277.72;;;6.23;100.00
24762;BME280;12865;51.934;10.330;2023-01-10T15:22:34;99273.28;;;6.11;100.00
24762;BME280;12865;51.934;10.330;2023-01-10T15:25:37;99271.81;;;6.07;100.00
24762;BME280;12865;51.934;10.330;2023-01-10T15:28:23;99271.47;;;6.12;100.00
24762;BME280;12865;51.934;10.330;2023-01-10T15:31:12;99270.13;;;6.06;100.00
24762;BME280;12865;51.934;10.330;2023-01-10T15:34:06;99269.63;;;6.01;100.00
24762;BME280;12865;51.934;10.330;2023-01-10T15:37:00;99264.63;;;5.97;100.00
24762;BME280;12865;51.934;10.330;2023-01-10T15:39:47;99262.31;;;5.92;100.00
24762;BME280;12865;51.934;10.330;2023-01-10T15:42:33;99265.72;;;5.94;100.00
24762;BME280;12865;51.934;10.330;2023-01-10T15:45:27;99259.78;;;5.90;100.00
24762;BME280;12865;51.934;10.330;2023-01-10T15:48:40;99267.50;;;5.94;100.00
24762;BME280;12865;51.934;10.330;2023-01-10T15:51:32;99262.84;;;5.84;100.00
24762;BME280;12865;51.934;10.330;2023-01-10T15:57:06;99269.00;;;5.72;100.00
24762;BME280;12865;51.934;10.330;2023-01-10T15:59:59;99266.88;;;5.77;100.00
24762;BME280;12865;51.934;10.330;2023-01-10T16:02:45;99262.53;;;5.89;100.00
24762;BME280;12865;51.934;10.330;2023-01-10T16:05:31;99263.72;;;5.72;100.00
24762;BME280;12865;51.934;10.330;2023-01-10T16:08:22;99261.91;;;5.73;100.00
24762;BME280;12865;51.934;10.330;2023-01-10T16:11:18;99255.88;;;5.71;100.00
24762;BME280;12865;51.934;10.330;2023-01-10T16:14:24;99259.28;;;5.73;100.00
24762;BME280;12865;51.934;10.330;2023-01-10T16:17:10;99257.91;;;5.67;100.00
24762;BME280;12865;51.934;10.330;2023-01-10T16:19:56;99259.16;;;5.74;100.00
24762;BME280;12865;51.934;10.330;2023-01-10T16:22:43;99244.78;;;5.66;100.00